sensor_id;sensor_type;location;lat;lon;timestamp;P1;durP1;ratioP1;P2;durP2;ratioP2
74626;SDS011;63132;52.268;5.192;2022-12-11T00:01:56;121.83;;;44.47;;
74626;SDS011;63132;52.268;5.192;2022-12-11T00:04:22;130.17;;;45.97;;
74626;SDS011;63132;52.268;5.192;2022-12-11T00:06:48;120.10;;;45.40;;
74626;SDS011;63132;52.268;5.192;2022-12-11T00:09:17;122.97;;;45.00;;
74626;SDS011;63132;52.268;5.192;2022-12-11T00:11:43;120.83;;;44.83;;
74626;SDS011;63132;52.268;5.192;2022-12-11T00:14:08;129.03;;;47.03;;
74626;SDS011;63132;52.268;5.192;2022-12-11T00:16:34;136.87;;;47.73;;
74626;SDS011;63132;52.268;5.192;2022-12-11T00:18:59;144.27;;;47.83;;
74626;SDS011;63132;52.268;5.192;2022-12-11T00:21:24;127.47;;;45.85;;
74626;SDS011;63132;52.268;5.192;2022-12-11T00:23:50;132.02;;;46.97;;
74626;SDS011;63132;52.268;5.192;2022-12-11T00:26:16;141.02;;;48.78;;
74626;SDS011;63132;52.268;5.192;2022-12-11T00:28:42;120.97;;;45.50;;
74626;SDS011;63132;52.268;5.192;2022-12-11T00:31:10;128.18;;;47.17;;
74626;SDS011;63132;52.268;5.192;2022-12-11T00:33:38;123.32;;;45.17;;
74626;SDS011;63132;52.268;5.192;2022-12-11T00:36:08;122.27;;;46.63;;
74626;SDS011;63132;52.268;5.192;2022-12-11T00:38:35;116.22;;;45.38;;
74626;SDS011;63132;52.268;5.192;2022-12-11T00:41:01;114.47;;;45.37;;
74626;SDS011;63132;52.268;5.192;2022-12-11T00:43:27;115.30;;;44.95;;
74626;SDS011;63132;52.268;5.192;2022-12-11T00:45:52;118.22;;;46.38;;
74626;SDS011;63132;52.268;5.192;2022-12-11T00:48:17;116.03;;;45.67;;
74626;SDS011;63132;52.268;5.192;2022-12-11T00:50:43;119.90;;;46.30;;
74626;SDS011;63132;52.268;5.192;2022-12-11T00:53:08;123.20;;;47.17;;
74626;SDS011;63132;52.268;5.192;2022-12-11T00:55:37;110.73;;;45.13;;
74626;SDS011;63132;52.268;5.192;2022-12-11T00:58:04;115.93;;;44.80;;
74626;SDS011;63132;52.268;5.192;2022-12-11T01:00:30;106.03;;;43.53;;
74626;SDS011;63132;52.268;5.192;2022-12-11T01:02:55;102.93;;;43.92;;
74626;SDS011;63132;52.268;5.192;2022-12-11T01:05:21;100.57;;;42.92;;
74626;SDS011;63132;52.268;5.192;2022-12-11T01:07:46;96.53;;;43.40;;
74626;SDS011;63132;52.268;5.192;2022-12-11T01:10:12;95.10;;;42.73;;
74626;SDS011;63132;52.268;5.192;2022-12-11T01:12:50;91.15;;;41.67;;
74626;SDS011;63132;52.268;5.192;2022-12-11T01:15:18;92.40;;;41.97;;
74626;SDS011;63132;52.268;5.192;2022-12-11T01:17:44;90.50;;;41.38;;
74626;SDS011;63132;52.268;5.192;2022-12-11T01:20:10;90.57;;;42.13;;
74626;SDS011;63132;52.268;5.192;2022-12-11T01:22:35;88.32;;;41.00;;
74626;SDS011;63132;52.268;5.192;2022-12-11T01:25:01;94.38;;;42.13;;
74626;SDS011;63132;52.268;5.192;2022-12-11T01:27:27;90.38;;;41.42;;
74626;SDS011;63132;52.268;5.192;2022-12-11T01:29:52;99.75;;;43.92;;
74626;SDS011;63132;52.268;5.192;2022-12-11T01:32:17;96.03;;;43.90;;
74626;SDS011;63132;52.268;5.192;2022-12-11T01:34:43;99.13;;;45.63;;
74626;SDS011;63132;52.268;5.192;2022-12-11T01:37:08;103.13;;;45.37;;
74626;SDS011;63132;52.268;5.192;2022-12-11T01:39:35;102.40;;;44.97;;
74626;SDS011;63132;52.268;5.192;2022-12-11T01:42:02;98.40;;;45.90;;
74626;SDS011;63132;52.268;5.192;2022-12-11T01:46:53;98.13;;;44.80;;
74626;SDS011;63132;52.268;5.192;2022-12-11T01:49:19;107.25;;;46.58;;
74626;SDS011;63132;52.268;5.192;2022-12-11T01:51:51;100.72;;;44.50;;
74626;SDS011;63132;52.268;5.192;2022-12-11T01:54:22;103.50;;;47.43;;
74626;SDS011;63132;52.268;5.192;2022-12-11T01:56:50;94.45;;;44.75;;
74626;SDS011;63132;52.268;5.192;2022-12-11T01:59:18;104.23;;;45.67;;
74626;SDS011;63132;52.268;5.192;2022-12-11T02:01:53;94.70;;;44.55;;
74626;SDS011;63132;52.268;5.192;2022-12-11T02:04:23;88.93;;;42.28;;
74626;SDS011;63132;52.268;5.192;2022-12-11T02:06:50;87.93;;;41.63;;
74626;SDS011;63132;52.268;5.192;2022-12-11T02:09:18;80.17;;;41.10;;
74626;SDS011;63132;52.268;5.192;2022-12-11T02:11:49;85.40;;;41.83;;
74626;SDS011;63132;52.268;5.192;2022-12-11T02:16:49;84.38;;;40.85;;
74626;SDS011;63132;52.268;5.192;2022-12-11T02:19:36;91.28;;;44.03;;
74626;SDS011;63132;52.268;5.192;2022-12-11T02:22:08;95.80;;;43.28;;
74626;SDS011;63132;52.268;5.192;2022-12-11T02:29:52;85.80;;;41.30;;
74626;SDS011;63132;52.268;5.192;2022-12-11T02:32:26;84.43;;;43.03;;
74626;SDS011;63132;52.268;5.192;2022-12-11T02:35:09;88.13;;;42.90;;
74626;SDS011;63132;52.268;5.192;2022-12-11T02:37:41;91.00;;;43.90;;
74626;SDS011;63132;52.268;5.192;2022-12-11T02:40:09;95.10;;;44.42;;
74626;SDS011;63132;52.268;5.192;2022-12-11T02:42:38;92.60;;;43.15;;
74626;SDS011;63132;52.268;5.192;2022-12-11T02:45:06;89.25;;;44.65;;
74626;SDS011;63132;52.268;5.192;2022-12-11T02:47:34;89.67;;;43.43;;
74626;SDS011;63132;52.268;5.192;2022-12-11T02:50:02;88.68;;;44.13;;
74626;SDS011;63132;52.268;5.192;2022-12-11T02:52:33;86.70;;;44.42;;
74626;SDS011;63132;52.268;5.192;2022-12-11T02:55:01;85.32;;;40.80;;
74626;SDS011;63132;52.268;5.192;2022-12-11T02:57:32;83.90;;;41.70;;
74626;SDS011;63132;52.268;5.192;2022-12-11T03:00:03;82.05;;;41.55;;
74626;SDS011;63132;52.268;5.192;2022-12-11T03:02:30;83.90;;;41.23;;
74626;SDS011;63132;52.268;5.192;2022-12-11T03:04:56;78.90;;;40.05;;
74626;SDS011;63132;52.268;5.192;2022-12-11T03:07:24;77.83;;;40.53;;
74626;SDS011;63132;52.268;5.192;2022-12-11T03:09:52;73.57;;;38.40;;
74626;SDS011;63132;52.268;5.192;2022-12-11T03:12:22;69.13;;;36.87;;
74626;SDS011;63132;52.268;5.192;2022-12-11T03:14:51;64.00;;;35.45;;
74626;SDS011;63132;52.268;5.192;2022-12-11T03:18:02;64.40;;;36.10;;
74626;SDS011;63132;52.268;5.192;2022-12-11T03:20:32;62.05;;;35.05;;
74626;SDS011;63132;52.268;5.192;2022-12-11T03:23:07;60.78;;;33.65;;
74626;SDS011;63132;52.268;5.192;2022-12-11T03:30:49;56.13;;;32.03;;
74626;SDS011;63132;52.268;5.192;2022-12-11T03:33:20;55.28;;;32.95;;
74626;SDS011;63132;52.268;5.192;2022-12-11T03:35:53;54.40;;;32.45;;
74626;SDS011;63132;52.268;5.192;2022-12-11T03:38:23;55.97;;;31.50;;
74626;SDS011;63132;52.268;5.192;2022-12-11T03:40:53;56.97;;;32.75;;
74626;SDS011;63132;52.268;5.192;2022-12-11T03:43:22;60.13;;;33.47;;
74626;SDS011;63132;52.268;5.192;2022-12-11T03:45:49;51.88;;;30.85;;
74626;SDS011;63132;52.268;5.192;2022-12-11T03:48:16;58.13;;;33.75;;
74626;SDS011;63132;52.268;5.192;2022-12-11T03:50:42;55.55;;;32.38;;
74626;SDS011;63132;52.268;5.192;2022-12-11T03:53:10;57.97;;;32.75;;
74626;SDS011;63132;52.268;5.192;2022-12-11T03:55:36;58.47;;;32.42;;
74626;SDS011;63132;52.268;5.192;2022-12-11T03:58:03;56.60;;;32.63;;
74626;SDS011;63132;52.268;5.192;2022-12-11T04:00:29;58.67;;;33.13;;
74626;SDS011;63132;52.268;5.192;2022-12-11T04:02:54;56.10;;;32.30;;
74626;SDS011;63132;52.268;5.192;2022-12-11T04:05:52;53.42;;;31.10;;
74626;SDS011;63132;52.268;5.192;2022-12-11T04:08:19;56.83;;;31.98;;
74626;SDS011;63132;52.268;5.192;2022-12-11T04:10:46;52.95;;;31.08;;
74626;SDS011;63132;52.268;5.192;2022-12-11T04:13:11;55.00;;;30.33;;
74626;SDS011;63132;52.268;5.192;2022-12-11T04:15:38;51.27;;;29.80;;
74626;SDS011;63132;52.268;5.192;2022-12-11T04:18:04;53.10;;;30.42;;
74626;SDS011;63132;52.268;5.192;2022-12-11T04:20:53;50.60;;;30.23;;
74626;SDS011;63132;52.268;5.192;2022-12-11T04:23:38;55.70;;;31.42;;
74626;SDS011;63132;52.268;5.192;2022-12-11T04:26:22;49.60;;;29.63;;
74626;SDS011;63132;52.268;5.192;2022-12-11T04:28:47;54.53;;;30.65;;
74626;SDS011;63132;52.268;5.192;2022-12-11T04:31:14;51.22;;;28.90;;
74626;SDS011;63132;52.268;5.192;2022-12-11T04:33:41;49.30;;;28.75;;
74626;SDS011;63132;52.268;5.192;2022-12-11T04:36:07;50.20;;;29.30;;
74626;SDS011;63132;52.268;5.192;2022-12-11T04:38:33;48.30;;;29.17;;
74626;SDS011;63132;52.268;5.192;2022-12-11T04:41:00;51.47;;;30.07;;
74626;SDS011;63132;52.268;5.192;2022-12-11T04:43:27;46.20;;;28.42;;
74626;SDS011;63132;52.268;5.192;2022-12-11T04:46:06;48.13;;;28.00;;
74626;SDS011;63132;52.268;5.192;2022-12-11T04:48:34;45.42;;;28.15;;
74626;SDS011;63132;52.268;5.192;2022-12-11T04:51:00;47.15;;;28.45;;
74626;SDS011;63132;52.268;5.192;2022-12-11T04:53:25;46.15;;;28.10;;
74626;SDS011;63132;52.268;5.192;2022-12-11T04:55:51;46.70;;;28.23;;
74626;SDS011;63132;52.268;5.192;2022-12-11T04:58:17;49.30;;;29.47;;
74626;SDS011;63132;52.268;5.192;2022-12-11T05:00:42;48.50;;;28.57;;
74626;SDS011;63132;52.268;5.192;2022-12-11T05:03:08;47.70;;;28.35;;
74626;SDS011;63132;52.268;5.192;2022-12-11T05:05:33;43.03;;;27.05;;
74626;SDS011;63132;52.268;5.192;2022-12-11T05:07:58;46.77;;;27.80;;
74626;SDS011;63132;52.268;5.192;2022-12-11T05:10:24;48.53;;;28.53;;
74626;SDS011;63132;52.268;5.192;2022-12-11T05:12:49;44.43;;;26.77;;
74626;SDS011;63132;52.268;5.192;2022-12-11T05:15:14;48.93;;;27.03;;
74626;SDS011;63132;52.268;5.192;2022-12-11T05:17:40;43.97;;;27.20;;
74626;SDS011;63132;52.268;5.192;2022-12-11T05:20:06;41.90;;;25.67;;
74626;SDS011;63132;52.268;5.192;2022-12-11T05:22:31;44.97;;;27.63;;
74626;SDS011;63132;52.268;5.192;2022-12-11T05:24:57;48.63;;;29.02;;
74626;SDS011;63132;52.268;5.192;2022-12-11T05:27:22;45.05;;;27.30;;
74626;SDS011;63132;52.268;5.192;2022-12-11T05:29:48;45.58;;;28.58;;
74626;SDS011;63132;52.268;5.192;2022-12-11T05:32:13;48.78;;;30.35;;
74626;SDS011;63132;52.268;5.192;2022-12-11T05:34:39;50.43;;;29.23;;
74626;SDS011;63132;52.268;5.192;2022-12-11T05:37:04;48.27;;;29.53;;
74626;SDS011;63132;52.268;5.192;2022-12-11T05:39:30;50.27;;;29.93;;
74626;SDS011;63132;52.268;5.192;2022-12-11T05:41:55;48.60;;;29.50;;
74626;SDS011;63132;52.268;5.192;2022-12-11T05:44:21;49.77;;;30.00;;
74626;SDS011;63132;52.268;5.192;2022-12-11T05:46:46;52.92;;;31.55;;
74626;SDS011;63132;52.268;5.192;2022-12-11T05:49:12;54.67;;;32.47;;
74626;SDS011;63132;52.268;5.192;2022-12-11T05:51:37;53.40;;;30.20;;
74626;SDS011;63132;52.268;5.192;2022-12-11T05:54:03;49.38;;;30.40;;
74626;SDS011;63132;52.268;5.192;2022-12-11T05:56:30;49.73;;;30.50;;
74626;SDS011;63132;52.268;5.192;2022-12-11T05:58:57;50.72;;;30.52;;
74626;SDS011;63132;52.268;5.192;2022-12-11T06:01:31;53.10;;;32.10;;
74626;SDS011;63132;52.268;5.192;2022-12-11T06:04:02;50.65;;;31.35;;
74626;SDS011;63132;52.268;5.192;2022-12-11T06:06:29;53.40;;;31.15;;
74626;SDS011;63132;52.268;5.192;2022-12-11T06:08:56;49.88;;;31.52;;
74626;SDS011;63132;52.268;5.192;2022-12-11T06:11:23;54.88;;;32.63;;
74626;SDS011;63132;52.268;5.192;2022-12-11T06:13:50;53.58;;;32.47;;
74626;SDS011;63132;52.268;5.192;2022-12-11T06:16:16;55.85;;;33.17;;
74626;SDS011;63132;52.268;5.192;2022-12-11T06:18:42;58.40;;;34.53;;
74626;SDS011;63132;52.268;5.192;2022-12-11T06:23:48;60.95;;;34.17;;
74626;SDS011;63132;52.268;5.192;2022-12-11T06:26:14;57.77;;;33.10;;
74626;SDS011;63132;52.268;5.192;2022-12-11T06:28:41;57.33;;;34.58;;
74626;SDS011;63132;52.268;5.192;2022-12-11T06:31:06;57.73;;;33.97;;
74626;SDS011;63132;52.268;5.192;2022-12-11T06:33:32;59.57;;;34.40;;
74626;SDS011;63132;52.268;5.192;2022-12-11T06:36:02;58.15;;;34.15;;
74626;SDS011;63132;52.268;5.192;2022-12-11T06:38:28;60.58;;;34.88;;
74626;SDS011;63132;52.268;5.192;2022-12-11T06:40:57;58.60;;;34.20;;
74626;SDS011;63132;52.268;5.192;2022-12-11T06:43:24;59.10;;;34.65;;
74626;SDS011;63132;52.268;5.192;2022-12-11T06:45:50;62.53;;;35.40;;
74626;SDS011;63132;52.268;5.192;2022-12-11T06:48:16;59.05;;;35.03;;
74626;SDS011;63132;52.268;5.192;2022-12-11T06:50:42;57.80;;;34.28;;
74626;SDS011;63132;52.268;5.192;2022-12-11T06:53:08;66.23;;;35.67;;
74626;SDS011;63132;52.268;5.192;2022-12-11T06:55:34;58.15;;;33.95;;
74626;SDS011;63132;52.268;5.192;2022-12-11T06:58:00;55.78;;;34.17;;
74626;SDS011;63132;52.268;5.192;2022-12-11T07:00:25;57.95;;;35.25;;
74626;SDS011;63132;52.268;5.192;2022-12-11T07:02:51;58.30;;;33.67;;
74626;SDS011;63132;52.268;5.192;2022-12-11T07:05:16;57.97;;;33.65;;
74626;SDS011;63132;52.268;5.192;2022-12-11T07:07:42;58.22;;;33.97;;
74626;SDS011;63132;52.268;5.192;2022-12-11T07:10:08;62.37;;;35.53;;
74626;SDS011;63132;52.268;5.192;2022-12-11T07:12:34;61.92;;;34.17;;
74626;SDS011;63132;52.268;5.192;2022-12-11T07:15:00;65.18;;;36.20;;
74626;SDS011;63132;52.268;5.192;2022-12-11T07:17:25;60.77;;;34.70;;
74626;SDS011;63132;52.268;5.192;2022-12-11T07:19:52;56.17;;;33.58;;
74626;SDS011;63132;52.268;5.192;2022-12-11T07:22:18;56.80;;;32.90;;
74626;SDS011;63132;52.268;5.192;2022-12-11T07:24:43;53.50;;;32.30;;
74626;SDS011;63132;52.268;5.192;2022-12-11T07:27:09;57.90;;;33.67;;
74626;SDS011;63132;52.268;5.192;2022-12-11T07:29:34;54.43;;;32.93;;
74626;SDS011;63132;52.268;5.192;2022-12-11T07:31:59;58.40;;;33.60;;
74626;SDS011;63132;52.268;5.192;2022-12-11T07:34:25;55.43;;;33.07;;
74626;SDS011;63132;52.268;5.192;2022-12-11T07:36:50;55.95;;;32.80;;
74626;SDS011;63132;52.268;5.192;2022-12-11T07:39:15;53.92;;;31.90;;
74626;SDS011;63132;52.268;5.192;2022-12-11T07:41:41;54.83;;;32.07;;
74626;SDS011;63132;52.268;5.192;2022-12-11T07:44:07;54.63;;;33.72;;
74626;SDS011;63132;52.268;5.192;2022-12-11T07:46:32;51.10;;;31.17;;
74626;SDS011;63132;52.268;5.192;2022-12-11T07:48:58;55.00;;;32.47;;
74626;SDS011;63132;52.268;5.192;2022-12-11T07:51:29;52.65;;;31.90;;
74626;SDS011;63132;52.268;5.192;2022-12-11T07:54:03;55.15;;;33.30;;
74626;SDS011;63132;52.268;5.192;2022-12-11T07:56:30;55.42;;;32.38;;
74626;SDS011;63132;52.268;5.192;2022-12-11T07:58:58;57.72;;;32.75;;
74626;SDS011;63132;52.268;5.192;2022-12-11T08:01:25;56.47;;;33.55;;
74626;SDS011;63132;52.268;5.192;2022-12-11T08:03:52;61.17;;;34.78;;
74626;SDS011;63132;52.268;5.192;2022-12-11T08:06:18;58.88;;;34.35;;
74626;SDS011;63132;52.268;5.192;2022-12-11T08:08:45;56.63;;;34.00;;
74626;SDS011;63132;52.268;5.192;2022-12-11T08:11:13;59.80;;;34.50;;
74626;SDS011;63132;52.268;5.192;2022-12-11T08:13:39;60.40;;;34.03;;
74626;SDS011;63132;52.268;5.192;2022-12-11T08:16:06;61.10;;;35.67;;
74626;SDS011;63132;52.268;5.192;2022-12-11T08:18:33;64.13;;;36.15;;
74626;SDS011;63132;52.268;5.192;2022-12-11T08:21:03;64.75;;;36.45;;
74626;SDS011;63132;52.268;5.192;2022-12-11T08:23:32;66.47;;;37.03;;
74626;SDS011;63132;52.268;5.192;2022-12-11T08:25:58;63.87;;;35.40;;
74626;SDS011;63132;52.268;5.192;2022-12-11T08:28:25;63.83;;;35.38;;
74626;SDS011;63132;52.268;5.192;2022-12-11T08:30:50;57.13;;;33.97;;
74626;SDS011;63132;52.268;5.192;2022-12-11T08:33:16;60.57;;;34.27;;
74626;SDS011;63132;52.268;5.192;2022-12-11T08:35:41;57.33;;;33.47;;
74626;SDS011;63132;52.268;5.192;2022-12-11T08:38:08;54.80;;;31.75;;
74626;SDS011;63132;52.268;5.192;2022-12-11T08:40:33;52.77;;;31.50;;
74626;SDS011;63132;52.268;5.192;2022-12-11T08:42:58;52.20;;;30.97;;
74626;SDS011;63132;52.268;5.192;2022-12-11T08:45:24;58.37;;;33.07;;
74626;SDS011;63132;52.268;5.192;2022-12-11T08:47:50;52.67;;;30.60;;
74626;SDS011;63132;52.268;5.192;2022-12-11T08:50:17;54.95;;;31.88;;
74626;SDS011;63132;52.268;5.192;2022-12-11T08:52:43;55.87;;;32.03;;
74626;SDS011;63132;52.268;5.192;2022-12-11T08:55:09;55.03;;;31.13;;
74626;SDS011;63132;52.268;5.192;2022-12-11T08:57:34;52.13;;;30.37;;
74626;SDS011;63132;52.268;5.192;2022-12-11T08:59:59;51.55;;;30.42;;
74626;SDS011;63132;52.268;5.192;2022-12-11T09:02:25;53.65;;;31.38;;
74626;SDS011;63132;52.268;5.192;2022-12-11T09:04:50;54.90;;;32.63;;
74626;SDS011;63132;52.268;5.192;2022-12-11T09:07:16;52.77;;;31.53;;
74626;SDS011;63132;52.268;5.192;2022-12-11T09:09:41;51.63;;;32.27;;
74626;SDS011;63132;52.268;5.192;2022-12-11T09:12:07;53.93;;;32.23;;
74626;SDS011;63132;52.268;5.192;2022-12-11T09:14:32;54.87;;;31.97;;
74626;SDS011;63132;52.268;5.192;2022-12-11T09:16:58;51.17;;;31.60;;
74626;SDS011;63132;52.268;5.192;2022-12-11T09:19:23;54.63;;;32.93;;
74626;SDS011;63132;52.268;5.192;2022-12-11T09:21:49;51.30;;;31.50;;
74626;SDS011;63132;52.268;5.192;2022-12-11T09:24:14;52.70;;;31.70;;
74626;SDS011;63132;52.268;5.192;2022-12-11T09:26:40;51.50;;;31.80;;
74626;SDS011;63132;52.268;5.192;2022-12-11T09:29:06;50.28;;;30.90;;
74626;SDS011;63132;52.268;5.192;2022-12-11T09:31:32;49.03;;;31.07;;
74626;SDS011;63132;52.268;5.192;2022-12-11T09:34:01;49.22;;;30.60;;
74626;SDS011;63132;52.268;5.192;2022-12-11T09:36:28;49.15;;;30.35;;
74626;SDS011;63132;52.268;5.192;2022-12-11T09:38:54;51.03;;;31.30;;
74626;SDS011;63132;52.268;5.192;2022-12-11T09:43:46;49.88;;;30.60;;
74626;SDS011;63132;52.268;5.192;2022-12-11T09:46:16;46.90;;;29.80;;
74626;SDS011;63132;52.268;5.192;2022-12-11T09:48:44;49.85;;;31.13;;
74626;SDS011;63132;52.268;5.192;2022-12-11T09:51:32;44.58;;;29.15;;
74626;SDS011;63132;52.268;5.192;2022-12-11T09:54:03;47.25;;;30.45;;
74626;SDS011;63132;52.268;5.192;2022-12-11T09:56:35;48.47;;;30.10;;
74626;SDS011;63132;52.268;5.192;2022-12-11T10:08:50;47.47;;;29.47;;
74626;SDS011;63132;52.268;5.192;2022-12-11T10:11:52;44.95;;;29.02;;
74626;SDS011;63132;52.268;5.192;2022-12-11T10:14:09;43.92;;;29.58;;
74626;SDS011;63132;52.268;5.192;2022-12-11T10:16:53;44.70;;;30.27;;
74626;SDS011;63132;52.268;5.192;2022-12-11T10:19:25;43.20;;;28.77;;
74626;SDS011;63132;52.268;5.192;2022-12-11T10:21:52;47.70;;;30.67;;
74626;SDS011;63132;52.268;5.192;2022-12-11T10:27:17;47.63;;;31.23;;
74626;SDS011;63132;52.268;5.192;2022-12-11T10:29:46;46.03;;;31.13;;
74626;SDS011;63132;52.268;5.192;2022-12-11T10:32:26;48.17;;;31.60;;
74626;SDS011;63132;52.268;5.192;2022-12-11T10:35:10;47.78;;;31.65;;
74626;SDS011;63132;52.268;5.192;2022-12-11T10:37:42;47.95;;;31.50;;
74626;SDS011;63132;52.268;5.192;2022-12-11T10:40:08;48.83;;;31.97;;
74626;SDS011;63132;52.268;5.192;2022-12-11T10:42:35;48.95;;;32.67;;
74626;SDS011;63132;52.268;5.192;2022-12-11T10:45:02;47.47;;;31.00;;
74626;SDS011;63132;52.268;5.192;2022-12-11T10:47:29;49.20;;;32.78;;
74626;SDS011;63132;52.268;5.192;2022-12-11T10:49:59;49.17;;;31.88;;
74626;SDS011;63132;52.268;5.192;2022-12-11T10:52:34;48.92;;;31.67;;
74626;SDS011;63132;52.268;5.192;2022-12-11T10:57:31;48.72;;;32.70;;
74626;SDS011;63132;52.268;5.192;2022-12-11T10:59:59;51.30;;;32.83;;
74626;SDS011;63132;52.268;5.192;2022-12-11T11:02:37;47.15;;;31.80;;
74626;SDS011;63132;52.268;5.192;2022-12-11T11:05:14;52.80;;;32.75;;
74626;SDS011;63132;52.268;5.192;2022-12-11T11:07:50;48.20;;;30.73;;
74626;SDS011;63132;52.268;5.192;2022-12-11T11:10:27;50.03;;;32.20;;
74626;SDS011;63132;52.268;5.192;2022-12-11T11:12:58;48.63;;;31.73;;
74626;SDS011;63132;52.268;5.192;2022-12-11T11:15:26;49.03;;;32.10;;
74626;SDS011;63132;52.268;5.192;2022-12-11T11:18:00;46.65;;;31.17;;
74626;SDS011;63132;52.268;5.192;2022-12-11T11:20:37;46.90;;;31.20;;
74626;SDS011;63132;52.268;5.192;2022-12-11T11:23:11;47.92;;;31.02;;
74626;SDS011;63132;52.268;5.192;2022-12-11T11:25:39;49.47;;;31.95;;
74626;SDS011;63132;52.268;5.192;2022-12-11T11:28:22;50.37;;;32.47;;
74626;SDS011;63132;52.268;5.192;2022-12-11T11:31:09;50.28;;;31.63;;
74626;SDS011;63132;52.268;5.192;2022-12-11T11:33:44;51.42;;;32.20;;
74626;SDS011;63132;52.268;5.192;2022-12-11T11:36:28;49.70;;;31.80;;
74626;SDS011;63132;52.268;5.192;2022-12-11T11:39:02;46.72;;;31.23;;
74626;SDS011;63132;52.268;5.192;2022-12-11T11:41:30;46.20;;;30.65;;
74626;SDS011;63132;52.268;5.192;2022-12-11T11:44:05;49.90;;;31.13;;
74626;SDS011;63132;52.268;5.192;2022-12-11T11:46:36;49.20;;;31.70;;
74626;SDS011;63132;52.268;5.192;2022-12-11T11:51:50;45.70;;;28.87;;
74626;SDS011;63132;52.268;5.192;2022-12-11T11:54:35;49.90;;;31.87;;
74626;SDS011;63132;52.268;5.192;2022-12-11T11:57:14;48.40;;;31.15;;
74626;SDS011;63132;52.268;5.192;2022-12-11T12:00:06;48.47;;;30.13;;
74626;SDS011;63132;52.268;5.192;2022-12-11T12:02:48;45.92;;;29.15;;
74626;SDS011;63132;52.268;5.192;2022-12-11T12:05:21;47.78;;;30.08;;
74626;SDS011;63132;52.268;5.192;2022-12-11T12:10:34;46.80;;;29.73;;
74626;SDS011;63132;52.268;5.192;2022-12-11T12:13:29;44.70;;;28.35;;
74626;SDS011;63132;52.268;5.192;2022-12-11T12:16:02;58.33;;;35.63;;
74626;SDS011;63132;52.268;5.192;2022-12-11T12:27:07;45.13;;;30.35;;
74626;SDS011;63132;52.268;5.192;2022-12-11T12:32:30;45.70;;;29.47;;
74626;SDS011;63132;52.268;5.192;2022-12-11T12:35:08;44.28;;;29.02;;
74626;SDS011;63132;52.268;5.192;2022-12-11T12:40:27;42.00;;;27.95;;
74626;SDS011;63132;52.268;5.192;2022-12-11T12:45:47;43.47;;;28.20;;
74626;SDS011;63132;52.268;5.192;2022-12-11T12:48:17;44.60;;;29.15;;
74626;SDS011;63132;52.268;5.192;2022-12-11T12:50:45;44.20;;;29.33;;
74626;SDS011;63132;52.268;5.192;2022-12-11T12:53:15;42.85;;;28.38;;
74626;SDS011;63132;52.268;5.192;2022-12-11T12:55:43;41.40;;;27.50;;
74626;SDS011;63132;52.268;5.192;2022-12-11T13:01:05;39.90;;;27.23;;
74626;SDS011;63132;52.268;5.192;2022-12-11T13:06:40;40.80;;;26.80;;
74626;SDS011;63132;52.268;5.192;2022-12-11T13:09:18;40.92;;;26.05;;
74626;SDS011;63132;52.268;5.192;2022-12-11T13:11:46;40.03;;;26.00;;
74626;SDS011;63132;52.268;5.192;2022-12-11T13:16:47;37.67;;;24.40;;
74626;SDS011;63132;52.268;5.192;2022-12-11T13:21:55;43.87;;;27.07;;
74626;SDS011;63132;52.268;5.192;2022-12-11T13:24:28;40.57;;;25.60;;
74626;SDS011;63132;52.268;5.192;2022-12-11T13:26:55;40.65;;;25.80;;
74626;SDS011;63132;52.268;5.192;2022-12-11T13:29:33;39.50;;;25.02;;
74626;SDS011;63132;52.268;5.192;2022-12-11T13:32:20;39.17;;;24.55;;
74626;SDS011;63132;52.268;5.192;2022-12-11T13:34:55;38.85;;;24.75;;
74626;SDS011;63132;52.268;5.192;2022-12-11T13:37:35;39.22;;;24.88;;
74626;SDS011;63132;52.268;5.192;2022-12-11T13:40:04;37.42;;;24.70;;
74626;SDS011;63132;52.268;5.192;2022-12-11T13:42:46;40.50;;;24.55;;
74626;SDS011;63132;52.268;5.192;2022-12-11T13:45:21;39.28;;;24.70;;
74626;SDS011;63132;52.268;5.192;2022-12-11T13:47:50;39.78;;;25.15;;
74626;SDS011;63132;52.268;5.192;2022-12-11T13:50:27;43.70;;;26.03;;
74626;SDS011;63132;52.268;5.192;2022-12-11T13:52:55;44.38;;;26.10;;
74626;SDS011;63132;52.268;5.192;2022-12-11T13:55:26;50.63;;;28.50;;
74626;SDS011;63132;52.268;5.192;2022-12-11T13:57:54;48.03;;;29.70;;
74626;SDS011;63132;52.268;5.192;2022-12-11T14:00:22;46.50;;;28.00;;
74626;SDS011;63132;52.268;5.192;2022-12-11T14:02:49;48.25;;;28.50;;
74626;SDS011;63132;52.268;5.192;2022-12-11T14:05:17;49.92;;;28.63;;
74626;SDS011;63132;52.268;5.192;2022-12-11T14:07:47;49.97;;;28.85;;
74626;SDS011;63132;52.268;5.192;2022-12-11T14:10:20;45.80;;;27.38;;
74626;SDS011;63132;52.268;5.192;2022-12-11T14:15:17;47.80;;;28.83;;
74626;SDS011;63132;52.268;5.192;2022-12-11T14:17:43;49.90;;;28.83;;
74626;SDS011;63132;52.268;5.192;2022-12-11T14:20:15;52.38;;;29.95;;
74626;SDS011;63132;52.268;5.192;2022-12-11T14:25:31;49.58;;;29.00;;
74626;SDS011;63132;52.268;5.192;2022-12-11T14:27:57;52.08;;;30.15;;
74626;SDS011;63132;52.268;5.192;2022-12-11T14:30:24;51.15;;;29.30;;
74626;SDS011;63132;52.268;5.192;2022-12-11T14:32:56;48.70;;;29.50;;
74626;SDS011;63132;52.268;5.192;2022-12-11T14:35:34;48.13;;;29.08;;
74626;SDS011;63132;52.268;5.192;2022-12-11T14:38:06;53.67;;;30.77;;
74626;SDS011;63132;52.268;5.192;2022-12-11T14:40:36;50.40;;;30.27;;
74626;SDS011;63132;52.268;5.192;2022-12-11T14:43:06;55.03;;;32.40;;
74626;SDS011;63132;52.268;5.192;2022-12-11T14:45:38;55.78;;;31.60;;
74626;SDS011;63132;52.268;5.192;2022-12-11T14:48:08;52.23;;;30.80;;
74626;SDS011;63132;52.268;5.192;2022-12-11T14:50:40;56.45;;;32.47;;
74626;SDS011;63132;52.268;5.192;2022-12-11T14:53:21;57.60;;;32.35;;
74626;SDS011;63132;52.268;5.192;2022-12-11T14:55:50;58.55;;;32.90;;
74626;SDS011;63132;52.268;5.192;2022-12-11T14:58:18;54.25;;;32.22;;
74626;SDS011;63132;52.268;5.192;2022-12-11T15:01:02;61.22;;;35.90;;
74626;SDS011;63132;52.268;5.192;2022-12-11T15:03:31;61.15;;;36.83;;
74626;SDS011;63132;52.268;5.192;2022-12-11T15:05:59;70.28;;;39.00;;
74626;SDS011;63132;52.268;5.192;2022-12-11T15:08:26;64.28;;;36.10;;
74626;SDS011;63132;52.268;5.192;2022-12-11T15:13:33;61.80;;;34.25;;
74626;SDS011;63132;52.268;5.192;2022-12-11T15:16:01;63.93;;;35.40;;
74626;SDS011;63132;52.268;5.192;2022-12-11T15:18:47;64.50;;;35.42;;
74626;SDS011;63132;52.268;5.192;2022-12-11T15:21:14;64.10;;;34.25;;
74626;SDS011;63132;52.268;5.192;2022-12-11T15:26:09;65.90;;;36.45;;
74626;SDS011;63132;52.268;5.192;2022-12-11T15:28:35;62.25;;;34.95;;
74626;SDS011;63132;52.268;5.192;2022-12-11T15:31:06;61.90;;;33.58;;
74626;SDS011;63132;52.268;5.192;2022-12-11T15:33:46;61.33;;;34.70;;
74626;SDS011;63132;52.268;5.192;2022-12-11T15:36:32;61.40;;;34.45;;
74626;SDS011;63132;52.268;5.192;2022-12-11T15:38:58;61.38;;;34.55;;
74626;SDS011;63132;52.268;5.192;2022-12-11T15:41:24;62.55;;;34.55;;
74626;SDS011;63132;52.268;5.192;2022-12-11T15:43:51;61.15;;;35.80;;
74626;SDS011;63132;52.268;5.192;2022-12-11T15:46:19;67.57;;;36.67;;
74626;SDS011;63132;52.268;5.192;2022-12-11T15:48:45;67.17;;;35.43;;
74626;SDS011;63132;52.268;5.192;2022-12-11T15:51:12;64.10;;;33.65;;
74626;SDS011;63132;52.268;5.192;2022-12-11T15:53:38;64.82;;;35.30;;